createdAt,value
2018-05-09T00:01:38.430Z,18.10
2018-05-09T00:04:06.726Z,18.10
2018-05-09T00:06:34.225Z,18.10
2018-05-09T00:09:02.625Z,18.10
2018-05-09T00:11:30.129Z,18.20
2018-05-09T00:13:57.649Z,18.10
2018-05-09T00:16:25.149Z,18.20
2018-05-09T00:18:52.673Z,18.20
2018-05-09T00:21:20.173Z,18.10
2018-05-09T00:23:47.702Z,18.10
2018-05-09T00:26:15.301Z,18.10
2018-05-09T00:28:42.830Z,18.10
2018-05-09T00:31:11.113Z,18.00
2018-05-09T00:33:38.652Z,18.00
2018-05-09T00:36:06.166Z,18.00
2018-05-09T00:38:34.441Z,18.00
2018-05-09T00:41:01.963Z,18.00
2018-05-09T00:43:29.465Z,18.00
2018-05-09T00:45:56.989Z,18.00
2018-05-09T00:48:24.524Z,17.90
2018-05-09T00:50:52.041Z,18.00
2018-05-09T00:53:19.545Z,17.90
2018-05-09T00:55:47.070Z,17.90
2018-05-09T00:58:14.569Z,18.00
2018-05-09T01:00:42.101Z,18.00
2018-05-09T01:03:09.601Z,18.00
2018-05-09T01:05:37.125Z,17.90
2018-05-09T01:08:05.393Z,17.90
2018-05-09T01:10:32.917Z,17.80
2018-05-09T01:13:00.417Z,17.80
2018-05-09T01:15:27.942Z,17.90
2018-05-09T01:17:55.451Z,17.90
2018-05-09T01:20:22.953Z,17.80
2018-05-09T01:22:50.484Z,17.80
2018-05-09T01:25:17.988Z,17.90
2018-05-09T01:27:45.509Z,17.80
2018-05-09T01:30:13.021Z,17.80
2018-05-09T01:32:40.550Z,17.80
2018-05-09T01:35:08.054Z,17.80
2018-05-09T01:37:35.577Z,17.80
2018-05-09T01:40:03.085Z,17.80
2018-05-09T01:42:30.614Z,17.80
2018-05-09T01:44:58.117Z,17.70
2018-05-09T01:47:25.692Z,17.70
2018-05-09T01:49:53.163Z,17.70
2018-05-09T01:52:20.689Z,17.70
2018-05-09T01:54:48.240Z,17.70
2018-05-09T01:57:15.753Z,17.60
2018-05-09T01:59:43.253Z,17.60
2018-05-09T02:02:10.762Z,17.60
2018-05-09T02:04:39.054Z,17.60
2018-05-09T02:07:07.325Z,17.60
2018-05-09T02:09:35.617Z,17.60
2018-05-09T02:12:03.881Z,17.50
2018-05-09T02:14:31.413Z,17.50
2018-05-09T02:16:58.917Z,17.50
2018-05-09T02:19:26.442Z,17.50
2018-05-09T02:21:53.961Z,17.40
2018-05-09T02:24:21.482Z,17.50
2018-05-09T02:26:48.987Z,17.40
2018-05-09T02:29:16.510Z,17.40
2018-05-09T02:31:44.782Z,17.40
2018-05-09T02:34:13.078Z,17.40
2018-05-09T02:36:41.349Z,17.40
2018-05-09T02:39:08.878Z,17.40
2018-05-09T02:41:36.386Z,17.40
2018-05-09T02:44:03.891Z,17.40
2018-05-09T02:46:31.434Z,17.40
2018-05-09T02:48:58.942Z,17.40
2018-05-09T02:51:26.474Z,17.40
2018-05-09T02:53:53.981Z,17.40
2018-05-09T02:56:21.501Z,17.40
2018-05-09T02:58:49.012Z,17.30
2018-05-09T03:01:16.543Z,17.30
2018-05-09T03:03:44.045Z,17.30
2018-05-09T03:06:12.333Z,17.20
2018-05-09T03:08:40.632Z,17.20
2018-05-09T03:11:08.158Z,17.20
2018-05-09T03:13:35.657Z,17.10
2018-05-09T03:16:03.946Z,17.10
2018-05-09T03:18:32.213Z,17.00
2018-05-09T03:20:59.738Z,17.00
2018-05-09T03:23:27.237Z,17.00
2018-05-09T03:25:54.770Z,17.00
2018-05-09T03:28:22.273Z,16.90
2018-05-09T03:30:49.773Z,16.90
2018-05-09T03:33:18.063Z,16.90
2018-05-09T03:35:46.333Z,16.90
2018-05-09T03:38:14.454Z,16.80
2018-05-09T03:40:41.959Z,16.80
2018-05-09T03:43:09.482Z,16.80
2018-05-09T03:45:37.770Z,16.80
2018-05-09T03:48:06.033Z,16.80
2018-05-09T03:50:33.558Z,16.70
2018-05-09T03:53:01.060Z,16.70
2018-05-09T03:55:29.357Z,16.70
2018-05-09T03:57:56.865Z,16.70
2018-05-09T04:00:25.137Z,16.70
2018-05-09T04:03:05.487Z,16.70
2018-05-09T04:05:44.774Z,16.70
2018-05-09T04:08:25.137Z,16.70
2018-05-09T04:10:53.401Z,16.70
2018-05-09T04:13:20.973Z,16.70
2018-05-09T04:15:49.306Z,16.70
2018-05-09T04:18:16.841Z,16.70
2018-05-09T04:20:44.362Z,16.70
2018-05-09T04:23:11.890Z,16.60
2018-05-09T04:25:40.161Z,16.60
2018-05-09T04:28:07.819Z,16.50
2018-05-09T04:30:35.244Z,16.60
2018-05-09T04:33:02.757Z,16.60
2018-05-09T04:35:30.285Z,16.60
2018-05-09T04:37:57.790Z,16.60
2018-05-09T04:40:25.318Z,16.60
2018-05-09T04:42:53.577Z,16.60
2018-05-09T04:45:21.097Z,16.60
2018-05-09T04:47:48.602Z,16.60
2018-05-09T04:50:16.125Z,16.60
2018-05-09T04:52:43.631Z,16.60
2018-05-09T04:55:11.165Z,16.60
2018-05-09T04:57:38.689Z,16.70
2018-05-09T05:00:06.190Z,16.70
2018-05-09T05:02:34.490Z,16.70
2018-05-09T05:05:02.002Z,16.70
2018-05-09T05:07:29.526Z,16.70
2018-05-09T05:09:57.035Z,16.70
2018-05-09T05:12:24.564Z,16.80
2018-05-09T05:14:52.073Z,16.80
2018-05-09T05:17:19.610Z,16.80
2018-05-09T05:19:47.132Z,16.90
2018-05-09T05:22:14.650Z,16.90
2018-05-09T05:24:42.185Z,16.90
2018-05-09T05:27:09.773Z,17.00
2018-05-09T05:29:37.233Z,17.00
2018-05-09T05:32:04.733Z,17.10
2018-05-09T05:34:32.257Z,17.20
2018-05-09T05:36:59.763Z,17.20
2018-05-09T05:39:27.293Z,17.20
2018-05-09T05:41:54.801Z,17.30
2018-05-09T05:44:23.115Z,17.40
2018-05-09T05:46:50.616Z,17.40
2018-05-09T05:49:25.565Z,17.40
2018-05-09T05:51:53.065Z,17.50
2018-05-09T05:54:20.568Z,17.60
2018-05-09T05:56:48.094Z,17.70
2018-05-09T05:59:15.597Z,17.70
2018-05-09T06:01:43.885Z,17.90
2018-05-09T06:04:11.392Z,17.90
2018-05-09T06:06:38.925Z,18.00
2018-05-09T06:09:07.197Z,18.10
2018-05-09T06:11:35.494Z,18.20
2018-05-09T06:14:03.773Z,18.30
2018-05-09T06:16:32.390Z,18.30
2018-05-09T06:18:59.897Z,18.30
2018-05-09T06:21:27.410Z,18.40
2018-05-09T06:23:55.739Z,18.60
2018-05-09T06:26:23.223Z,18.60
2018-05-09T06:28:50.746Z,18.70
2018-05-09T06:31:19.013Z,18.90
2018-05-09T06:33:46.541Z,18.90
2018-05-09T06:36:14.056Z,19.00
2018-05-09T06:38:41.579Z,19.10
2018-05-09T06:41:09.081Z,19.20
2018-05-09T06:43:36.631Z,19.20
2018-05-09T06:46:04.350Z,19.30
2018-05-09T06:48:32.616Z,19.40
2018-05-09T06:53:21.655Z,19.70
2018-05-09T06:55:49.941Z,19.70
2018-05-09T06:58:18.210Z,19.90
2018-05-09T07:00:45.730Z,19.90
2018-05-09T07:03:13.235Z,20.00
2018-05-09T07:05:40.757Z,20.10
2018-05-09T07:08:08.257Z,20.10
2018-05-09T07:10:35.777Z,20.20
2018-05-09T07:13:04.041Z,20.30
2018-05-09T07:15:31.568Z,20.30
2018-05-09T07:17:59.072Z,20.40
2018-05-09T07:20:26.597Z,20.40
2018-05-09T07:22:54.101Z,20.50
2018-05-09T07:25:21.601Z,20.60
2018-05-09T07:27:49.898Z,20.70
2018-05-09T07:30:18.165Z,20.80
2018-05-09T07:32:45.686Z,20.80
2018-05-09T07:35:13.188Z,20.90
2018-05-09T07:37:40.709Z,21.00
2018-05-09T07:40:08.974Z,21.10
2018-05-09T07:42:36.489Z,21.10
2018-05-09T07:45:03.989Z,21.20
2018-05-09T07:47:31.529Z,21.30
2018-05-09T07:49:59.033Z,21.40
2018-05-09T07:52:26.562Z,21.50
2018-05-09T07:54:54.069Z,21.50
2018-05-09T07:57:21.595Z,21.60
2018-05-09T07:59:49.093Z,21.70
2018-05-09T08:02:16.602Z,21.80
2018-05-09T08:04:44.122Z,21.80
2018-05-09T08:07:11.621Z,22.00
2018-05-09T08:09:39.149Z,21.90
2018-05-09T08:12:06.650Z,22.10
2018-05-09T08:14:34.173Z,22.10
2018-05-09T08:17:02.446Z,22.20
2018-05-09T08:19:29.965Z,22.20
2018-05-09T08:21:57.465Z,22.30
2018-05-09T08:24:24.986Z,22.40
2018-05-09T08:26:52.485Z,22.50
2018-05-09T08:29:20.005Z,22.60
2018-05-09T08:31:48.274Z,22.80
2018-05-09T08:34:15.773Z,22.80
2018-05-09T08:36:44.099Z,23.00
2018-05-09T08:39:11.581Z,23.00
2018-05-09T08:41:39.101Z,23.00
2018-05-09T08:44:07.374Z,23.20
2018-05-09T08:46:35.665Z,23.30
2018-05-09T08:49:03.929Z,23.50
2018-05-09T08:51:31.457Z,23.40
2018-05-09T08:53:58.949Z,23.70
2018-05-09T08:56:26.478Z,23.70
2018-05-09T08:58:53.980Z,23.80
2018-05-09T09:01:21.498Z,23.80
2018-05-09T09:03:49.990Z,24.10
2018-05-09T09:06:18.140Z,24.00
2018-05-09T09:08:46.994Z,24.10
2018-05-09T09:11:15.261Z,24.40
2018-05-09T09:13:42.797Z,24.40
2018-05-09T09:16:10.306Z,24.60
2018-05-09T09:18:38.602Z,24.60
2018-05-09T09:21:06.873Z,24.60
2018-05-09T09:23:34.393Z,24.60
2018-05-09T09:26:01.894Z,24.90
2018-05-09T09:28:29.397Z,24.90
2018-05-09T09:30:57.709Z,24.60
2018-05-09T09:33:25.209Z,24.60
2018-05-09T09:35:52.729Z,24.90
2018-05-09T09:38:20.999Z,25.20
2018-05-09T09:40:48.522Z,25.10
2018-05-09T09:43:16.023Z,25.00
2018-05-09T09:45:43.545Z,25.30
2018-05-09T09:48:11.054Z,25.50
2018-05-09T09:50:38.590Z,25.70
2018-05-09T09:53:06.101Z,25.80
2018-05-09T09:55:33.623Z,25.90
2018-05-09T09:58:01.146Z,26.20
2018-05-09T10:00:28.659Z,26.30
2018-05-09T10:02:56.181Z,26.60
2018-05-09T10:05:23.681Z,26.60
2018-05-09T10:07:51.977Z,26.90
2018-05-09T10:10:20.245Z,26.60
2018-05-09T10:12:47.771Z,26.60
2018-05-09T10:15:15.274Z,26.60
2018-05-09T10:17:42.797Z,26.50
2018-05-09T10:20:10.309Z,26.90
2018-05-09T10:22:37.838Z,27.10
2018-05-09T10:25:05.342Z,27.20
2018-05-09T10:27:32.868Z,27.20
2018-05-09T10:30:00.389Z,27.20
2018-05-09T10:32:27.890Z,27.50
2018-05-09T10:34:56.189Z,27.60
2018-05-09T10:37:23.690Z,27.60
2018-05-09T10:39:51.213Z,27.70
2018-05-09T10:42:20.910Z,27.80
2018-05-09T10:44:49.367Z,28.10
2018-05-09T10:47:17.639Z,28.20
2018-05-09T10:49:45.162Z,28.10
2018-05-09T10:52:12.671Z,28.50
2018-05-09T10:54:40.193Z,28.70
2018-05-09T10:57:08.360Z,28.70
2018-05-09T10:59:36.242Z,28.80
2018-05-09T11:02:03.742Z,29.10
2018-05-09T11:04:31.246Z,29.10
2018-05-09T11:06:58.772Z,29.40
2018-05-09T11:09:26.343Z,29.30
2018-05-09T11:11:53.869Z,29.40
2018-05-09T11:14:22.133Z,29.80
2018-05-09T11:16:49.656Z,29.80
2018-05-09T11:19:17.158Z,30.00
2018-05-09T11:21:44.681Z,30.20
2018-05-09T11:24:12.958Z,30.70
2018-05-09T11:26:41.276Z,30.60
2018-05-09T11:29:08.790Z,30.50
2018-05-09T11:31:36.298Z,31.00
2018-05-09T11:34:04.593Z,31.40
2018-05-09T11:36:32.102Z,31.40
2018-05-09T11:38:59.630Z,31.30
2018-05-09T11:41:27.901Z,31.70
2018-05-09T11:43:56.193Z,31.60
2018-05-09T11:46:24.461Z,32.00
2018-05-09T11:48:51.986Z,32.00
2018-05-09T11:51:19.910Z,32.20
2018-05-09T11:53:47.433Z,31.90
2018-05-09T11:56:14.937Z,31.70
2018-05-09T11:58:42.489Z,31.60
2018-05-09T12:01:09.985Z,31.60
2018-05-09T12:03:37.489Z,31.90
2018-05-09T12:06:05.822Z,32.20
2018-05-09T12:08:33.380Z,32.10
2018-05-09T12:11:00.929Z,32.50
2018-05-09T12:13:29.199Z,32.90
2018-05-09T12:15:57.486Z,33.00
2018-05-09T12:18:25.795Z,32.60
2018-05-09T12:20:53.321Z,32.50
2018-05-09T12:23:20.825Z,32.30
2018-05-09T12:25:49.113Z,32.80
2018-05-09T12:28:17.386Z,32.80
2018-05-09T12:30:44.913Z,32.80
2018-05-09T12:33:12.434Z,33.00
2018-05-09T12:35:40.707Z,32.60
2018-05-09T12:38:08.233Z,32.60
2018-05-09T12:40:35.749Z,32.50
2018-05-09T12:43:03.277Z,33.20
2018-05-09T12:45:30.777Z,32.70
2018-05-09T12:47:58.322Z,32.80
2018-05-09T12:50:25.825Z,32.80
2018-05-09T12:52:53.942Z,32.60
2018-05-09T12:55:21.450Z,32.80
2018-05-09T12:57:48.976Z,32.70
2018-05-09T13:00:17.253Z,33.50
2018-05-09T13:02:45.533Z,33.10
2018-05-09T13:05:14.000Z,33.10
2018-05-09T13:07:41.501Z,32.90
2018-05-09T13:10:09.789Z,32.70
2018-05-09T13:12:38.057Z,33.00
2018-05-09T13:15:05.581Z,32.90
2018-05-09T13:17:33.083Z,33.10
2018-05-09T13:20:00.605Z,33.10
2018-05-09T13:22:28.115Z,32.90
2018-05-09T13:24:55.641Z,33.10
2018-05-09T13:27:23.919Z,33.50
2018-05-09T13:29:52.214Z,33.40
2018-05-09T13:32:20.494Z,33.50
2018-05-09T13:34:48.764Z,33.70
2018-05-09T13:37:16.290Z,33.70
2018-05-09T13:39:43.850Z,33.70
2018-05-09T13:42:11.391Z,33.50
2018-05-09T13:44:39.661Z,33.40
2018-05-09T13:47:07.185Z,33.40
2018-05-09T13:49:34.690Z,33.60
2018-05-09T13:52:02.215Z,33.70
2018-05-09T13:54:29.721Z,33.70
2018-05-09T13:56:57.246Z,33.80
2018-05-09T13:59:25.517Z,33.80
2018-05-09T14:01:53.815Z,33.30
2018-05-09T14:04:22.085Z,33.60
2018-05-09T14:06:49.589Z,33.60
2018-05-09T14:09:17.114Z,33.30
2018-05-09T14:11:44.624Z,33.00
2018-05-09T14:14:12.149Z,33.10
2018-05-09T14:16:39.649Z,32.60
2018-05-09T14:19:07.945Z,33.00
2018-05-09T14:21:36.209Z,33.20
2018-05-09T14:24:03.738Z,33.20
2018-05-09T14:26:31.270Z,33.00
2018-05-09T14:28:59.566Z,33.30
2018-05-09T14:31:27.840Z,33.50
2018-05-09T14:33:56.113Z,33.20
2018-05-09T14:36:23.642Z,33.20
2018-05-09T14:38:51.142Z,33.20
2018-05-09T14:41:18.705Z,33.30
2018-05-09T14:43:46.205Z,33.20
2018-05-09T14:46:14.501Z,33.50
2018-05-09T14:48:42.786Z,33.40
2018-05-09T14:51:11.073Z,33.60
2018-05-09T14:53:39.350Z,33.10
2018-05-09T14:56:06.895Z,33.10
2018-05-09T14:58:34.397Z,33.20
2018-05-09T15:01:01.999Z,33.40
2018-05-09T15:03:29.528Z,33.60
2018-05-09T15:05:57.046Z,33.50
2018-05-09T15:08:24.565Z,33.30
2018-05-09T15:10:52.068Z,33.30
2018-05-09T15:13:20.369Z,33.20
2018-05-09T15:15:47.869Z,33.20
2018-05-09T15:18:15.417Z,33.20
2018-05-09T15:20:42.922Z,32.60
2018-05-09T15:23:10.453Z,32.60
2018-05-09T15:25:37.962Z,32.30
2018-05-09T15:28:05.462Z,32.70
2018-05-09T15:30:33.754Z,32.60
2018-05-09T15:33:02.041Z,32.60
2018-05-09T15:35:30.350Z,32.60
2018-05-09T15:37:57.853Z,32.60
2018-05-09T15:40:25.392Z,32.20
2018-05-09T15:42:52.897Z,32.10
2018-05-09T15:45:20.421Z,31.70
2018-05-09T15:47:48.690Z,31.50
2018-05-09T15:50:16.230Z,31.50
2018-05-09T15:52:43.742Z,31.50
2018-05-09T15:55:12.017Z,31.20
2018-05-09T15:57:39.542Z,31.20
2018-05-09T16:00:07.054Z,31.00
2018-05-09T16:02:34.604Z,30.70
2018-05-09T16:05:02.582Z,30.70
2018-05-09T16:07:30.905Z,30.40
2018-05-09T16:09:59.206Z,30.30
2018-05-09T16:12:27.504Z,30.20
2018-05-09T16:14:55.770Z,30.20
2018-05-09T16:17:23.377Z,30.20
2018-05-09T16:19:50.887Z,29.90
2018-05-09T16:22:18.526Z,29.70
2018-05-09T16:24:45.957Z,29.50
2018-05-09T16:27:14.227Z,29.20
2018-05-09T16:29:41.753Z,29.10
2018-05-09T16:32:09.311Z,29.00
2018-05-09T16:34:36.917Z,28.90
2018-05-09T16:37:04.421Z,28.70
2018-05-09T16:39:31.929Z,28.60
2018-05-09T16:41:59.453Z,28.50
2018-05-09T16:44:26.958Z,28.40
2018-05-09T16:46:54.494Z,28.10
2018-05-09T16:49:22.002Z,28.10
2018-05-09T16:51:49.506Z,28.10
2018-05-09T16:54:17.043Z,27.90
2018-05-09T16:56:44.542Z,27.70
2018-05-09T16:59:12.047Z,27.70
2018-05-09T17:01:39.579Z,27.30
2018-05-09T17:04:07.077Z,27.10
2018-05-09T17:06:34.577Z,26.90
2018-05-09T17:09:02.866Z,26.60
2018-05-09T17:11:31.134Z,26.50
2018-05-09T17:13:58.665Z,26.40
2018-05-09T17:16:26.165Z,26.40
2018-05-09T17:18:53.679Z,26.20
2018-05-09T17:21:35.009Z,26.00
2018-05-09T17:24:02.522Z,25.90
2018-05-09T17:26:30.830Z,25.50
2018-05-09T17:28:59.165Z,25.40
2018-05-09T17:31:26.682Z,25.40
2018-05-09T17:33:54.980Z,25.20
2018-05-09T17:36:22.537Z,25.20
2018-05-09T17:38:50.829Z,25.00
2018-05-09T17:41:19.098Z,24.90
2018-05-09T17:43:46.601Z,24.90
2018-05-09T17:46:14.127Z,24.80
2018-05-09T17:48:41.630Z,24.70
2018-05-09T17:51:09.169Z,24.60
2018-05-09T17:53:36.669Z,24.50
2018-05-09T17:56:04.945Z,24.30
2018-05-09T17:58:33.291Z,24.20
2018-05-09T18:01:00.757Z,24.10
2018-05-09T18:03:28.276Z,24.00
2018-05-09T18:05:56.542Z,23.80
2018-05-09T18:08:24.065Z,23.80
2018-05-09T18:10:51.576Z,23.70
2018-05-09T18:13:19.098Z,23.60
2018-05-09T18:15:46.597Z,23.40
2018-05-09T18:18:14.122Z,23.20
2018-05-09T18:20:42.434Z,22.80
2018-05-09T18:23:09.963Z,22.80
2018-05-09T18:25:38.362Z,22.70
2018-05-09T18:28:07.305Z,22.50
2018-05-09T18:30:34.873Z,22.40
2018-05-09T18:33:02.394Z,22.40
2018-05-09T18:35:30.660Z,22.30
2018-05-09T18:37:58.341Z,22.30
2018-05-09T18:40:25.893Z,22.20
2018-05-09T18:42:53.394Z,22.20
2018-05-09T18:45:20.921Z,22.00
2018-05-09T18:47:48.421Z,21.90
2018-05-09T18:50:16.709Z,21.60
2018-05-09T18:52:47.007Z,21.60
2018-05-09T18:55:14.746Z,21.50
2018-05-09T18:57:42.245Z,21.50
2018-05-09T19:00:09.785Z,21.50
2018-05-09T19:02:37.286Z,21.50
2018-05-09T19:05:04.825Z,21.40
2018-05-09T19:07:32.326Z,21.40
2018-05-09T19:09:59.901Z,21.40
2018-05-09T19:12:27.401Z,21.30
2018-05-09T19:14:54.907Z,21.30
2018-05-09T19:17:23.206Z,21.20
2018-05-09T19:19:51.474Z,21.20
2018-05-09T19:22:18.997Z,21.20
2018-05-09T19:24:46.497Z,21.10
2018-05-09T19:27:14.029Z,21.10
2018-05-09T19:29:41.543Z,21.00
2018-05-09T19:32:09.069Z,20.90
2018-05-09T19:34:36.590Z,20.90
2018-05-09T19:37:04.120Z,20.90
2018-05-09T19:39:31.620Z,20.90
2018-05-09T19:42:00.083Z,21.00
2018-05-09T19:44:27.589Z,21.00
2018-05-09T19:46:55.113Z,21.00
2018-05-09T19:49:22.626Z,21.00
2018-05-09T19:51:50.154Z,21.10
2018-05-09T19:54:17.658Z,21.10
2018-05-09T19:56:45.160Z,21.10
2018-05-09T19:59:13.465Z,21.10
2018-05-09T20:01:41.733Z,21.10
2018-05-09T20:04:10.025Z,21.10
2018-05-09T20:06:38.292Z,21.10
2018-05-09T20:09:05.814Z,21.10
2018-05-09T20:11:33.329Z,21.10
2018-05-09T20:14:00.879Z,21.10
2018-05-09T20:16:28.385Z,21.10
2018-05-09T20:18:55.903Z,21.10
2018-05-09T20:21:23.409Z,21.20
2018-05-09T20:23:50.933Z,21.20
2018-05-09T20:26:18.433Z,21.10
2018-05-09T20:28:51.729Z,21.20
2018-05-09T20:31:36.882Z,21.20
2018-05-09T20:34:04.632Z,21.20
2018-05-09T20:36:32.137Z,21.20
2018-05-09T20:38:59.637Z,21.20
2018-05-09T20:41:27.163Z,21.20
2018-05-09T20:43:54.675Z,21.30
2018-05-09T20:46:22.195Z,21.30
2018-05-09T20:48:50.478Z,21.20
2018-05-09T20:51:23.990Z,21.20
2018-05-09T20:53:52.215Z,21.20
2018-05-09T20:56:19.745Z,21.20
2018-05-09T20:58:47.245Z,21.10
2018-05-09T21:01:26.745Z,21.10
2018-05-09T21:03:54.250Z,21.00
2018-05-09T21:06:22.541Z,20.90
2018-05-09T21:08:50.805Z,20.80
2018-05-09T21:11:18.333Z,20.80
2018-05-09T21:13:45.833Z,20.80
2018-05-09T21:16:13.658Z,20.70
2018-05-09T21:18:41.157Z,20.60
2018-05-09T21:21:08.658Z,20.60
2018-05-09T21:23:36.181Z,20.50
2018-05-09T21:26:03.681Z,20.40
2018-05-09T21:28:31.201Z,20.50
2018-05-09T21:30:58.709Z,20.40
2018-05-09T21:33:26.234Z,20.20
2018-05-09T21:35:54.498Z,20.10
2018-05-09T21:38:22.022Z,20.10
2018-05-09T21:40:49.589Z,20.10
2018-05-09T21:43:17.065Z,20.10
2018-05-09T21:45:44.561Z,20.10
2018-05-09T21:48:12.081Z,20.00
2018-05-09T21:50:39.582Z,20.00
2018-05-09T21:53:07.105Z,20.00
2018-05-09T21:55:35.375Z,20.00
2018-05-09T21:58:02.906Z,20.00
2018-05-09T22:00:30.405Z,20.00
2018-05-09T22:02:57.906Z,20.00
2018-05-09T22:05:26.194Z,20.00
2018-05-09T22:07:54.457Z,20.00
2018-05-09T22:10:21.978Z,20.00
2018-05-09T22:12:49.481Z,20.00
2018-05-09T22:15:17.002Z,20.00
2018-05-09T22:17:45.268Z,19.90
2018-05-09T22:20:12.789Z,20.00
2018-05-09T22:22:40.289Z,20.00
2018-05-09T22:25:07.811Z,19.90
2018-05-09T22:27:35.325Z,19.90
2018-05-09T22:30:02.855Z,19.80
2018-05-09T22:32:30.361Z,19.80
2018-05-09T22:34:57.917Z,19.70
2018-05-09T22:37:25.417Z,19.70
2018-05-09T22:39:52.916Z,19.70
2018-05-09T22:42:21.205Z,19.60
2018-05-09T22:44:49.480Z,19.50
2018-05-09T22:47:17.002Z,19.50
2018-05-09T22:49:44.508Z,19.50
2018-05-09T22:52:12.043Z,19.50
2018-05-09T22:54:39.564Z,19.40
2018-05-09T22:57:07.857Z,19.50
2018-05-09T22:59:36.129Z,19.50
2018-05-09T23:02:03.657Z,19.40
2018-05-09T23:04:31.161Z,19.50
2018-05-09T23:06:58.693Z,19.40
2018-05-09T23:09:26.205Z,19.40
2018-05-09T23:11:53.733Z,19.40
2018-05-09T23:14:21.243Z,19.30
2018-05-09T23:16:48.776Z,19.30
2018-05-09T23:19:16.291Z,19.30
2018-05-09T23:21:43.801Z,19.20
2018-05-09T23:24:11.334Z,19.10
2018-05-09T23:26:38.837Z,19.10
2018-05-09T23:29:06.362Z,19.00
2018-05-09T23:31:33.870Z,19.00
2018-05-09T23:34:01.421Z,19.00
2018-05-09T23:36:28.925Z,18.90
2018-05-09T23:38:56.449Z,18.90
2018-05-09T23:41:23.989Z,18.80
2018-05-09T23:43:51.513Z,18.70
2018-05-09T23:46:19.785Z,18.60
2018-05-09T23:48:47.310Z,18.60
2018-05-09T23:51:14.813Z,18.60
2018-05-09T23:53:42.340Z,18.50
2018-05-09T23:56:09.855Z,18.50
2018-05-09T23:58:37.397Z,18.50
